createdAt,value
2019-01-03T00:00:56.621Z,79.24
2019-01-03T00:03:42.375Z,79.19
2019-01-03T00:06:32.491Z,79.34
2019-01-03T00:09:24.900Z,78.52
2019-01-03T00:12:04.913Z,78.01
2019-01-03T00:15:06.988Z,78.04
2019-01-03T00:17:52.554Z,78.16
2019-01-03T00:20:51.695Z,77.92
2019-01-03T00:23:47.336Z,77.68
2019-01-03T00:26:32.863Z,77.56
2019-01-03T00:29:38.189Z,77.57
2019-01-03T00:32:23.743Z,77.38
2019-01-03T00:35:28.852Z,77.60
2019-01-03T00:38:16.208Z,77.33
2019-01-03T00:41:18.385Z,77.25
2019-01-03T00:43:55.999Z,77.08
2019-01-03T00:46:49.091Z,77.18
2019-01-03T00:49:34.964Z,76.93
2019-01-03T00:52:20.803Z,76.92
2019-01-03T00:55:20.548Z,76.38
2019-01-03T00:58:18.855Z,76.50
2019-01-03T01:01:04.723Z,76.43
2019-01-03T01:04:00.911Z,76.58
2019-01-03T01:07:06.528Z,76.22
2019-01-03T01:10:02.337Z,76.43
2019-01-03T01:12:48.083Z,76.37
2019-01-03T01:15:53.147Z,76.58
2019-01-03T01:18:40.400Z,76.19
2019-01-03T01:21:26.059Z,76.11
2019-01-03T01:24:19.068Z,76.20
2019-01-03T01:27:06.263Z,76.01
2019-01-03T01:29:59.236Z,76.50
2019-01-03T01:32:45.417Z,76.24
2019-01-03T01:35:31.207Z,76.07
2019-01-03T01:38:17.037Z,76.00
2019-01-03T01:41:19.227Z,75.66
2019-01-03T01:44:06.416Z,75.72
2019-01-03T01:47:02.554Z,75.77
2019-01-03T01:49:56.514Z,75.60
2019-01-03T01:52:42.156Z,75.69
2019-01-03T01:55:39.271Z,75.43
2019-01-03T01:58:27.916Z,75.53
2019-01-03T02:01:24.095Z,75.24
2019-01-03T02:04:09.897Z,75.34
2019-01-03T02:06:55.612Z,75.29
2019-01-03T02:09:42.864Z,75.43
2019-01-03T02:12:28.648Z,75.16
2019-01-03T02:15:18.739Z,75.32
2019-01-03T02:18:04.831Z,75.32
2019-01-03T02:20:49.523Z,74.97
2019-01-03T02:23:51.725Z,75.05
2019-01-03T02:26:48.043Z,74.85
2019-01-03T02:29:33.895Z,75.09
2019-01-03T02:32:26.916Z,74.46
2019-01-03T02:35:26.060Z,74.46
2019-01-03T02:38:22.268Z,74.37
2019-01-03T02:41:11.192Z,74.37
2019-01-03T02:43:59.167Z,74.00
2019-01-03T02:46:53.688Z,74.16
2019-01-03T02:49:43.031Z,74.26
2019-01-03T02:52:28.589Z,74.36
2019-01-03T02:55:18.688Z,74.63
2019-01-03T02:58:14.684Z,74.38
2019-01-03T03:01:06.167Z,74.36
2019-01-03T03:04:11.276Z,74.85
2019-01-03T03:07:07.270Z,75.37
2019-01-03T03:09:45.188Z,75.17
2019-01-03T03:12:32.451Z,75.31
2019-01-03T03:15:17.965Z,75.48
2019-01-03T03:18:01.409Z,75.01
2019-01-03T03:20:47.017Z,75.07
2019-01-03T03:23:35.023Z,75.61
2019-01-03T03:26:20.531Z,75.94
2019-01-03T03:29:06.176Z,75.80
2019-01-03T03:32:06.318Z,75.82
2019-01-03T03:34:59.535Z,76.22
2019-01-03T03:38:01.589Z,75.73
2019-01-03T03:40:47.107Z,75.66
2019-01-03T03:43:40.108Z,75.29
2019-01-03T03:46:25.778Z,75.06
2019-01-03T03:49:12.940Z,75.15
2019-01-03T03:51:58.767Z,74.53
2019-01-03T03:54:51.960Z,74.68
2019-01-03T03:57:31.175Z,75.31
2019-01-03T04:00:36.321Z,75.13
2019-01-03T04:03:26.483Z,75.44
2019-01-03T04:06:14.164Z,75.64
2019-01-03T04:09:16.334Z,75.12
2019-01-03T04:12:06.183Z,75.22
2019-01-03T04:14:59.244Z,75.44
2019-01-03T04:17:38.683Z,74.95
2019-01-03T04:20:24.281Z,75.42
2019-01-03T04:23:13.479Z,76.00
2019-01-03T04:25:59.251Z,75.96
2019-01-03T04:28:44.916Z,75.79
2019-01-03T04:31:40.292Z,76.11
2019-01-03T04:34:36.280Z,76.26
2019-01-03T04:37:35.570Z,76.15
2019-01-03T04:40:10.844Z,75.44
2019-01-03T04:42:56.643Z,75.70
2019-01-03T04:45:55.760Z,75.88
2019-01-03T04:48:43.007Z,75.72
2019-01-03T04:51:46.599Z,75.85
2019-01-03T04:54:33.826Z,75.92
2019-01-03T04:57:29.853Z,75.59
2019-01-03T05:00:17.125Z,75.78
2019-01-03T05:03:07.132Z,76.26
2019-01-03T05:06:00.472Z,75.85
2019-01-03T05:08:47.647Z,76.49
2019-01-03T05:11:40.879Z,75.39
2019-01-03T05:14:33.879Z,75.84
2019-01-03T05:17:19.681Z,75.91
2019-01-03T05:20:15.747Z,76.32
2019-01-03T05:23:17.852Z,76.47
2019-01-03T05:26:03.392Z,76.08
2019-01-03T05:28:57.503Z,75.93
2019-01-03T05:31:47.376Z,75.68
2019-01-03T05:34:37.448Z,75.70
2019-01-03T05:37:27.444Z,75.67
2019-01-03T05:40:13.236Z,76.01
2019-01-03T05:43:15.323Z,75.85
2019-01-03T05:46:11.612Z,75.71
2019-01-03T05:49:01.420Z,76.04
2019-01-03T05:51:54.477Z,76.07
2019-01-03T05:54:40.200Z,75.95
2019-01-03T05:57:26.036Z,76.12
2019-01-03T06:00:18.928Z,76.61
2019-01-03T06:03:04.620Z,75.61
2019-01-03T06:06:03.847Z,75.39
2019-01-03T06:08:49.560Z,76.23
2019-01-03T06:11:27.985Z,76.39
2019-01-03T06:14:23.908Z,75.69
2019-01-03T06:17:13.846Z,75.90
2019-01-03T06:20:03.809Z,75.60
2019-01-03T06:23:00.991Z,75.63
2019-01-03T06:26:06.216Z,76.40
2019-01-03T06:28:51.559Z,76.57
2019-01-03T06:31:34.963Z,76.66
2019-01-03T06:34:37.108Z,75.78
2019-01-03T06:37:39.212Z,75.49
2019-01-03T06:40:38.444Z,77.34
2019-01-03T06:43:24.107Z,77.04
2019-01-03T06:46:09.623Z,77.60
2019-01-03T06:48:55.315Z,77.86
2019-01-03T06:51:45.859Z,77.64
2019-01-03T06:54:38.972Z,77.06
2019-01-03T06:57:26.155Z,77.81
2019-01-03T07:00:12.068Z,77.62
2019-01-03T07:03:09.999Z,78.47
2019-01-03T07:05:55.673Z,79.27
2019-01-03T07:08:41.312Z,79.34
2019-01-03T07:11:26.941Z,80.13
2019-01-03T07:14:23.247Z,79.62
2019-01-03T07:17:13.604Z,80.12
2019-01-03T07:20:04.477Z,80.37
2019-01-03T07:22:50.191Z,80.41
2019-01-03T07:25:43.105Z,80.26
2019-01-03T07:28:39.328Z,80.64
2019-01-03T07:31:37.015Z,79.33
2019-01-03T07:34:24.373Z,79.89
2019-01-03T07:37:14.240Z,80.27
2019-01-03T07:40:01.501Z,80.11
2019-01-03T07:42:47.202Z,80.27
2019-01-03T07:45:34.617Z,80.60
2019-01-03T07:48:33.764Z,79.99
2019-01-03T07:51:23.852Z,79.79
2019-01-03T07:54:08.913Z,79.11
2019-01-03T07:56:54.669Z,79.26
2019-01-03T07:59:56.152Z,79.09
2019-01-03T08:02:46.196Z,79.06
2019-01-03T08:05:42.142Z,79.05
2019-01-03T08:08:27.700Z,78.50
2019-01-03T08:11:13.476Z,78.18
2019-01-03T08:13:59.189Z,78.56
2019-01-03T08:16:45.096Z,77.98
2019-01-03T08:19:30.790Z,79.32
2019-01-03T08:22:16.543Z,80.11
2019-01-03T08:25:04.152Z,79.98
2019-01-03T08:28:03.141Z,79.39
2019-01-03T08:30:48.840Z,79.57
2019-01-03T08:33:36.076Z,79.41
2019-01-03T08:36:21.868Z,79.59
2019-01-03T08:39:09.365Z,79.30
2019-01-03T08:41:56.704Z,78.95
2019-01-03T08:44:42.707Z,79.06
2019-01-03T08:47:32.859Z,79.39
2019-01-03T08:50:21.854Z,79.12
2019-01-03T08:53:27.237Z,78.62
2019-01-03T08:56:18.589Z,79.28
2019-01-03T08:59:04.312Z,79.30
2019-01-03T09:01:50.140Z,79.32
2019-01-03T09:04:36.208Z,79.22
2019-01-03T09:07:35.472Z,79.00
2019-01-03T09:10:21.407Z,78.84
2019-01-03T09:13:07.058Z,78.85
2019-01-03T09:15:57.132Z,78.58
2019-01-03T09:18:42.836Z,78.87
2019-01-03T09:21:31.335Z,78.92
2019-01-03T09:24:18.503Z,77.90
2019-01-03T09:27:14.619Z,77.81
2019-01-03T09:30:19.917Z,77.25
2019-01-03T09:33:07.150Z,77.12
2019-01-03T09:35:52.803Z,76.90
2019-01-03T09:38:38.451Z,77.18
2019-01-03T09:41:28.416Z,76.47
2019-01-03T09:44:30.613Z,76.64
2019-01-03T09:46:58.876Z,76.74
2019-01-03T09:49:27.175Z,77.27
2019-01-03T09:51:55.496Z,77.18
2019-01-03T09:54:23.763Z,77.05
2019-01-03T09:56:52.242Z,77.29
2019-01-03T09:59:20.546Z,77.36
2019-01-03T10:01:48.923Z,77.21
2019-01-03T10:04:17.215Z,77.16
2019-01-03T10:06:45.691Z,76.82
2019-01-03T10:09:13.995Z,77.51
2019-01-03T10:11:42.240Z,77.02
2019-01-03T10:14:10.660Z,76.70
2019-01-03T10:16:38.916Z,76.69
2019-01-03T10:19:07.191Z,76.75
2019-01-03T10:21:35.518Z,76.69
2019-01-03T10:24:03.771Z,76.81
2019-01-03T10:26:32.041Z,76.87
2019-01-03T10:29:00.451Z,77.04
2019-01-03T10:31:28.701Z,77.09
2019-01-03T10:33:56.990Z,77.19
2019-01-03T10:36:25.364Z,76.73
2019-01-03T10:38:53.623Z,76.48
2019-01-03T10:41:21.876Z,76.41
2019-01-03T10:43:50.319Z,76.48
2019-01-03T10:46:18.588Z,75.69
2019-01-03T10:48:46.880Z,75.83
2019-01-03T10:51:15.300Z,75.50
2019-01-03T10:53:43.563Z,75.21
2019-01-03T10:56:11.822Z,74.92
2019-01-03T10:58:40.119Z,74.77
2019-01-03T11:01:08.358Z,74.96
2019-01-03T11:03:36.600Z,74.38
2019-01-03T11:06:04.980Z,74.55
2019-01-03T11:08:33.307Z,74.25
2019-01-03T11:11:02.237Z,74.07
2019-01-03T11:13:30.591Z,74.49
2019-01-03T11:15:58.825Z,74.48
2019-01-03T11:18:27.100Z,74.05
2019-01-03T11:20:55.407Z,74.33
2019-01-03T11:23:23.637Z,73.44
2019-01-03T11:25:51.927Z,73.78
2019-01-03T11:28:20.291Z,73.71
2019-01-03T11:30:48.547Z,73.84
2019-01-03T11:33:16.797Z,73.42
2019-01-03T11:35:45.223Z,73.83
2019-01-03T11:38:13.460Z,72.91
2019-01-03T11:40:41.710Z,73.23
2019-01-03T11:43:10.007Z,72.64
2019-01-03T11:45:38.257Z,73.15
2019-01-03T11:48:06.512Z,73.12
2019-01-03T11:50:34.887Z,72.70
2019-01-03T11:53:03.153Z,72.71
2019-01-03T11:55:31.401Z,72.74
2019-01-03T11:57:59.800Z,72.88
2019-01-03T12:00:28.053Z,73.48
2019-01-03T12:02:56.288Z,73.25
2019-01-03T12:05:24.611Z,74.50
2019-01-03T12:07:52.868Z,73.54
2019-01-03T12:10:21.203Z,74.02
2019-01-03T12:12:51.151Z,73.95
2019-01-03T12:15:19.403Z,74.99
2019-01-03T12:17:47.690Z,74.53
2019-01-03T12:20:16.148Z,74.38
2019-01-03T12:22:44.420Z,75.11
2019-01-03T12:25:12.676Z,74.75
2019-01-03T12:27:41.094Z,75.05
2019-01-03T12:30:09.925Z,75.00
2019-01-03T12:32:38.211Z,75.06
2019-01-03T12:35:06.959Z,74.91
2019-01-03T12:37:35.216Z,75.03
2019-01-03T12:40:03.435Z,75.04
2019-01-03T12:42:31.820Z,75.43
2019-01-03T12:45:00.153Z,75.85
2019-01-03T12:47:28.340Z,75.49
2019-01-03T12:49:56.721Z,75.64
2019-01-03T12:52:24.994Z,76.01
2019-01-03T12:54:53.290Z,76.53
2019-01-03T12:57:21.640Z,76.69
2019-01-03T12:59:49.893Z,76.45
2019-01-03T13:02:18.168Z,76.21
2019-01-03T13:04:46.485Z,75.93
2019-01-03T13:07:14.812Z,75.83
2019-01-03T13:09:43.051Z,76.10
2019-01-03T13:12:11.568Z,75.92
2019-01-03T13:14:39.829Z,76.04
2019-01-03T13:17:08.117Z,76.08
2019-01-03T13:19:36.512Z,75.80
2019-01-03T13:22:04.764Z,76.01
2019-01-03T13:24:33.052Z,75.92
2019-01-03T13:27:01.548Z,75.94
2019-01-03T13:29:29.843Z,76.31
2019-01-03T13:31:58.096Z,75.63
2019-01-03T13:34:26.507Z,75.75
2019-01-03T13:36:54.804Z,75.74
2019-01-03T13:39:23.108Z,76.44
2019-01-03T13:41:52.464Z,75.67
2019-01-03T13:44:20.713Z,75.80
2019-01-03T13:46:49.022Z,76.54
2019-01-03T13:49:17.481Z,76.07
2019-01-03T13:51:45.769Z,76.27
2019-01-03T13:54:14.056Z,76.82
2019-01-03T13:56:42.463Z,76.41
2019-01-03T13:59:10.744Z,77.22
2019-01-03T14:01:39.311Z,77.24
2019-01-03T16:47:32.103Z,80.80
